• Join FlightAware (Why Join?)
  • Login
  • US Flag 
04:41PM EDT


 

Airport Tracker/Info


-or-


 

Live Flight TrackerFlight Track Log ✈ SWA199 ✈ 07-May-2012 ✈ KBOS - KBWI

Flight Track Log - Related Links

Times and Time Zones

All times are in EDT time to prevent confusion due to time zone crossing. See the SWA199 flight status page for this flight to view local times or setup timezone preferences in your user account.

Time Position Orientation Groundspeed Altitude Reporting Facility
EDT Latitude Longitude Course Direction KTS MPH feet Rate Location/Type
05:07PM 42.3667 -70.9833 75° East 135 155 900  Level Boston TRACON
05:08PM 42.3833 -70.9000 90° East 202 232 3,400 2,640 Climbing Boston TRACON
05:09PM 42.3833 -70.8167 110° East 237 273 7,000 3,300 Climbing Boston TRACON
05:10PM 42.3583 -70.7233 219° Southwest 263 303 10,500 2,220 Climbing Boston Center
05:12PM 42.2228 -70.8728 258° West 246 283 14,000 1,140 Climbing Boston Center
05:13PM 42.2056 -70.9856 258° West 319 367 14,000 1,680 Level Boston Center
05:14PM 42.1822 -71.1289 260° West 350 403 17,400 2,640 Climbing Boston Center
05:15PM 42.1650 -71.2553 258° West 366 421 19,300 2,520 Climbing Boston Center
05:18PM 42.0958 -71.6986 257° West 396 456 27,700 2,520 Climbing Boston Center
05:19PM 42.0736 -71.8303 257° West 401 461 29,600 2,400 Climbing Boston Center
05:20PM 42.0472 -71.9789 244° Southwest 406 467 32,500 2,160 Climbing Boston Center
05:21PM 41.9978 -72.1133 237° Southwest 406 467 34,000 720 Climbing Boston Center
05:22PM 41.9375 -72.2364 237° Southwest 406 467 34,000  Level Boston Center
05:23PM 41.8753 -72.3647 237° Southwest 406 467 34,000  Level Boston Center
05:24PM 41.8128 -72.4931 238° Southwest 411 473 34,000  Level Boston Center
05:25PM 41.7522 -72.6211 236° Southwest 416 479 34,000  Level Boston Center
05:26PM 41.6872 -72.7514 237° Southwest 416 479 34,000  Level Boston Center
05:27PM 41.6264 -72.8761 238° Southwest 416 479 34,000  Level Boston Center
05:28PM 41.5633 -73.0089 237° Southwest 416 479 34,000  Level Boston Center
05:29PM 41.5022 -73.1358 237° Southwest 416 479 34,000  Level Boston Center
05:30PM 41.4386 -73.2653 237° Southwest 416 479 34,000  Level Boston Center
05:31PM 41.3772 -73.3917 235° Southwest 411 473 34,000  Level Boston Center
05:34PM 41.2214 -73.6842 231° Southwest 422 486 34,000  Level New York Center
05:35PM 41.1478 -73.8047 232° Southwest 422 486 34,000  Level New York Center
05:36PM 41.0778 -73.9256 231° Southwest 427 491 34,000  Level New York Center
05:37PM 41.0058 -74.0431 232° Southwest 427 491 34,000 -480 Level New York Center
05:38PM 40.9336 -74.1658 232° Southwest 427 491 33,100 -1,740 Descending New York Center
05:39PM 40.8547 -74.2992 232° Southwest 432 497 30,600 -2,640 Descending New York Center
05:40PM 40.7800 -74.4242 231° Southwest 432 497 28,000 -1,200 Descending New York Center
05:41PM 40.7056 -74.5433 231° Southwest 432 497 28,000 -540 Level New York Center
05:42PM 40.6153 -74.6886 221° Southwest 432 497 26,900 -1,560 Descending New York Center
05:43PM 40.5244 -74.7928 206° Southwest 421 484 24,900 -2,340 Descending New York Center
05:44PM 40.4178 -74.8600 227° Southwest 426 490 22,300 -2,460 Descending New York Center
05:45PM 40.3389 -74.9697 236° Southwest 397 457 20,100 -1,140 Descending New York Center
05:46PM 40.2850 -75.0753 236° Southwest 397 457 20,000 -60 Descending New York Center
05:47PM 40.2200 -75.2017 237° Southwest 391 450 20,000  Level New York Center
05:48PM 40.1633 -75.3178 233° Southwest 386 444 20,000  Level New York Center
05:49PM 40.0875 -75.4511 231° Southwest 386 444 20,000  Level New York Center
05:50PM 40.0206 -75.5606 232° Southwest 396 456 20,000 -360 Level New York Center
05:51PM 39.9531 -75.6750 231° Southwest 396 456 19,300 -960 Descending New York Center
05:52PM 39.8928 -75.7708 232° Southwest 397 457 18,100 -2,040 Descending New York Center
05:54PM 39.7333 -76.0333 232° Southwest 353 406 12,600 -1,860 Descending Potomac TRACON
05:55PM 39.6833 -76.1167 247° West 305 351 12,000 -780 Descending Potomac TRACON
05:56PM 39.6500 -76.2167 243° Southwest 282 325 11,100 -1,140 Descending Potomac TRACON
05:57PM 39.6167 -76.3000 247° West 280 322 9,800 -1,440 Descending Potomac TRACON
05:59PM 39.5833 -76.4000 237° Southwest 276 318 8,100 -1,500 Descending Potomac TRACON
05:59PM 39.5500 -76.4667 258° West 270 311 7,000 -1,380 Descending Potomac TRACON
06:00PM 39.5333 -76.5667 226° Southwest 260 299 5,500 -1,440 Descending Potomac TRACON
06:02PM 39.4833 -76.6333 218° Southwest 243 280 4,000 -960 Descending Potomac TRACON
06:03PM 39.4333 -76.6833 201° Southwest 248 285 3,600 -900 Descending Potomac TRACON
06:04PM 39.3667 -76.7167 201° Southwest 241 277 2,300 -1,320 Descending Potomac TRACON